Time;durP1;ratioP1;P1;durP2;ratioP2;P2;SDS_P1;SDS_P2;PMS_P1;PMS_P2;Temp;Humidity;BMP_temperature;BMP_pressure;BME280_temperature;BME280_humidity;BME280_pressure;Samples;Min_cycle;Max_cycle;Signal;HPM_P1;HPM_P2
2021/09/28 00:00:14;;;;;;;0.80;0.73;;;9.80;39.10;;;;;;4875120;28;20236;-78
2021/09/28 00:02:38;;;;;;;0.70;0.70;;;9.90;38.60;;;;;;4872208;28;20706;-79
2021/09/28 00:05:01;;;;;;;0.80;0.67;;;9.80;38.40;;;;;;4876798;28;20193;-80
2021/09/28 00:07:23;;;;;;;0.97;0.90;;;9.80;38.60;;;;;;4876075;28;20578;-80
2021/09/28 00:09:46;;;;;;;0.50;0.50;;;9.90;39.10;;;;;;4876787;28;20711;-80
2021/09/28 00:12:09;;;;;;;0.70;0.67;;;9.90;39.10;;;;;;4876041;28;20634;-80
2021/09/28 00:14:32;;;;;;;0.70;0.70;;;;;;;;;;4875596;28;20215;-80
2021/09/28 00:16:54;;;;;;;0.50;0.50;;;;;;;;;;4876633;28;20572;-81
2021/09/28 00:19:18;;;;;;;1.17;1.07;;;9.60;39.10;;;;;;4875719;28;20181;-79
2021/09/28 00:21:41;;;;;;;0.60;0.60;;;;;;;;;;4876512;28;20181;-79
2021/09/28 00:24:04;;;;;;;0.77;0.77;;;;;;;;;;4875687;28;20185;-78
2021/09/28 00:26:26;;;;;;;0.80;0.80;;;;;;;;;;4875441;28;20224;-79
2021/09/28 00:28:49;;;;;;;0.50;0.50;;;10.00;37.40;;;;;;4874785;28;20190;-80
2021/09/28 00:31:12;;;;;;;0.60;0.60;;;10.00;38.10;;;;;;4876188;28;20247;-80
2021/09/28 00:33:34;;;;;;;0.47;0.47;;;10.00;38.10;;;;;;4875815;28;20181;-81
2021/09/28 00:35:58;;;;;;;0.50;0.50;;;9.90;37.90;;;;;;4875682;28;20186;-81
2021/09/28 00:38:21;;;;;;;0.70;0.70;;;10.00;37.70;;;;;;4875601;28;20189;-79
2021/09/28 00:40:44;;;;;;;0.50;0.50;;;;;;;;;;4875874;28;20181;-80
2021/09/28 00:43:06;;;;;;;0.80;0.80;;;10.00;38.10;;;;;;4875599;28;20185;-78
2021/09/28 00:45:29;;;;;;;0.73;0.73;;;10.00;38.40;;;;;;4869632;28;20185;-81
2021/09/28 00:47:53;;;;;;;0.50;0.50;;;9.80;38.50;;;;;;4876106;28;20181;-79
2021/09/28 00:50:15;;;;;;;0.77;0.77;;;9.90;38.40;;;;;;4875570;28;20724;-79
2021/09/28 00:52:39;;;;;;;0.77;0.77;;;9.90;39.20;;;;;;4875552;28;20641;-79
2021/09/28 00:55:02;;;;;;;0.40;0.40;;;9.80;38.50;;;;;;4875840;28;20247;-80
2021/09/28 00:57:25;;;;;;;0.90;0.90;;;10.00;38.80;;;;;;4875309;28;20201;-79
2021/09/28 00:59:48;;;;;;;0.50;0.50;;;9.90;38.30;;;;;;4875887;28;20203;-79
2021/09/28 01:02:12;;;;;;;0.50;0.50;;;10.00;38.50;;;;;;4872562;28;20229;-77
2021/09/28 01:04:34;;;;;;;0.40;0.40;;;;;;;;;;4875873;28;20190;-75
2021/09/28 01:06:59;;;;;;;0.60;0.60;;;10.00;38.20;;;;;;4875504;28;20210;-79
2021/09/28 01:09:23;;;;;;;0.87;0.83;;;9.80;38.50;;;;;;4875166;28;20204;-79
2021/09/28 01:11:46;;;;;;;0.50;0.50;;;10.10;38.50;;;;;;4875749;28;20204;-79
2021/09/28 01:14:09;;;;;;;0.70;0.70;;;;;;;;;;4874059;28;20258;-79
2021/09/28 01:16:32;;;;;;;0.43;0.43;;;10.10;39.00;;;;;;4874514;28;20239;-79
2021/09/28 01:18:54;;;;;;;0.40;0.40;;;10.00;39.40;;;;;;4875417;28;20263;-80
2021/09/28 01:21:19;;;;;;;1.27;1.10;;;9.30;39.50;;;;;;4874476;28;20612;-80
2021/09/28 01:23:45;;;;;;;1.07;0.70;;;9.80;39.20;;;;;;4874874;28;20251;-79
2021/09/28 01:26:08;;;;;;;0.73;0.73;;;;;;;;;;4875167;28;20674;-73
2021/09/28 01:28:30;;;;;;;0.70;0.70;;;9.40;39.00;;;;;;4875285;28;20239;-80
2021/09/28 01:30:52;;;;;;;0.50;0.50;;;9.50;39.80;;;;;;4877880;28;20223;-79
2021/09/28 01:33:16;;;;;;;0.53;0.53;;;9.70;39.50;;;;;;4877533;28;20212;-79
2021/09/28 01:35:40;;;;;;;0.40;0.40;;;8.90;39.30;;;;;;4879078;28;20643;-79
2021/09/28 01:38:03;;;;;;;0.50;0.50;;;9.60;39.50;;;;;;4879011;28;20197;-79
2021/09/28 01:40:26;;;;;;;1.00;0.90;;;9.90;39.00;;;;;;4879218;28;20177;-79
2021/09/28 01:42:49;;;;;;;0.50;0.50;;;9.60;39.60;;;;;;4879318;28;20190;-78
2021/09/28 01:45:11;;;;;;;0.67;0.67;;;9.60;39.60;;;;;;4878882;28;20643;-77
2021/09/28 01:47:34;;;;;;;0.33;0.33;;;;;;;;;;4879311;28;20212;-78
2021/09/28 01:49:57;;;;;;;0.47;0.47;;;9.60;39.20;;;;;;4878751;28;20197;-79
2021/09/28 01:52:19;;;;;;;0.73;0.73;;;9.70;39.70;;;;;;4878475;28;20189;-79
2021/09/28 01:54:43;;;;;;;0.70;0.70;;;9.50;39.70;;;;;;4876330;28;20194;-80
2021/09/28 01:57:06;;;;;;;1.43;0.80;;;9.50;39.40;;;;;;4878474;28;20247;-80
2021/09/28 01:59:29;;;;;;;0.80;0.80;;;;;;;;;;4873825;28;20185;-78
2021/09/28 02:01:51;;;;;;;0.40;0.40;;;9.30;39.30;;;;;;4869236;28;20233;-79
2021/09/28 02:04:14;;;;;;;0.60;0.60;;;;;;;;;;4877367;28;20194;-79
2021/09/28 02:06:39;;;;;;;0.43;0.43;;;9.30;40.20;;;;;;4878781;28;20295;-79
2021/09/28 02:09:02;;;;;;;0.50;0.50;;;;;;;;;;4878867;28;20682;-80
2021/09/28 02:11:26;;;;;;;0.63;0.63;;;9.30;40.30;;;;;;4878420;28;20724;-79
2021/09/28 02:13:50;;;;;;;0.60;0.60;;;;;;;;;;4876956;28;20208;-77
2021/09/28 02:16:13;;;;;;;0.50;0.50;;;;;;;;;;4878490;28;20227;-79
2021/09/28 02:18:35;;;;;;;0.40;0.40;;;;;;;;;;4878638;28;20193;-78
2021/09/28 02:20:58;;;;;;;0.83;0.57;;;;;;;;;;4878965;28;20189;-79
2021/09/28 02:23:21;;;;;;;0.70;0.70;;;;;;;;;;4877960;28;20193;-80
2021/09/28 02:25:44;;;;;;;0.60;0.60;;;;;;;;;;4878469;28;20208;-79
2021/09/28 02:28:08;;;;;;;0.60;0.60;;;9.10;38.90;;;;;;4878210;28;20213;-73
2021/09/28 02:30:30;;;;;;;0.70;0.70;;;9.30;39.30;;;;;;4874309;28;20182;-75
2021/09/28 02:32:53;;;;;;;0.40;0.40;;;9.30;38.40;;;;;;4878197;28;20177;-79
2021/09/28 02:35:15;;;;;;;0.50;0.50;;;9.30;38.20;;;;;;4877958;28;20243;-78
2021/09/28 02:37:38;;;;;;;0.47;0.47;;;9.50;38.00;;;;;;4878287;28;20185;-79
2021/09/28 02:40:02;;;;;;;0.40;0.40;;;9.00;38.00;;;;;;4878432;28;20194;-79
2021/09/28 02:42:24;;;;;;;0.60;0.60;;;;;;;;;;4877301;28;20251;-78
2021/09/28 02:44:48;;;;;;;0.60;0.60;;;9.30;37.40;;;;;;4877966;28;20189;-79
2021/09/28 02:47:11;;;;;;;0.50;0.50;;;10.20;36.90;;;;;;4878210;28;20221;-79
2021/09/28 02:49:33;;;;;;;0.53;0.53;;;9.70;37.00;;;;;;4878151;28;20189;-78
2021/09/28 02:51:56;;;;;;;0.53;0.53;;;10.20;37.10;;;;;;4877920;28;20193;-78
2021/09/28 02:54:18;;;;;;;0.70;0.70;;;9.80;36.80;;;;;;4877668;28;20524;-79
2021/09/28 02:56:41;;;;;;;0.60;0.50;;;9.90;36.70;;;;;;4877746;28;20185;-78
2021/09/28 02:59:04;;;;;;;0.40;0.40;;;;;;;;;;4877946;28;20247;-77
2021/09/28 03:01:28;;;;;;;0.60;0.60;;;10.10;37.60;;;;;;4875483;28;20683;-79
2021/09/28 03:03:50;;;;;;;0.50;0.50;;;10.10;37.40;;;;;;4877043;28;20247;-79
2021/09/28 03:06:13;;;;;;;0.57;0.57;;;;;;;;;;4877130;28;20189;-78
2021/09/28 03:08:36;;;;;;;0.40;0.40;;;;;;;;;;4877925;28;20213;-76
2021/09/28 03:10:58;;;;;;;0.50;0.50;;;10.30;38.90;;;;;;4877821;28;20220;-79
2021/09/28 03:13:21;;;;;;;0.70;0.70;;;10.60;39.40;;;;;;4876856;28;20193;-80
2021/09/28 03:15:43;;;;;;;0.60;0.60;;;;;;;;;;4877550;28;20185;-79
2021/09/28 03:18:08;;;;;;;0.47;0.47;;;10.60;40.70;;;;;;4876566;28;20690;-79
2021/09/28 03:20:30;;;;;;;0.70;0.70;;;10.70;41.50;;;;;;4870944;28;20223;-79
2021/09/28 03:22:53;;;;;;;0.33;0.33;;;;;;;;;;4877695;28;20235;-80
2021/09/28 03:25:16;;;;;;;0.53;0.53;;;10.60;43.10;;;;;;4876969;28;20202;-78
2021/09/28 03:27:38;;;;;;;0.33;0.33;;;10.50;42.90;;;;;;4877201;28;20209;-79
2021/09/28 03:30:01;;;;;;;0.50;0.50;;;10.90;43.50;;;;;;4877211;28;20247;-80
2021/09/28 03:32:23;;;;;;;0.60;0.60;;;;;;;;;;4876530;28;20251;-79
2021/09/28 03:34:47;;;;;;;0.20;0.20;;;10.60;44.10;;;;;;4876140;28;20190;-80
2021/09/28 03:37:10;;;;;;;0.67;0.67;;;10.80;44.00;;;;;;4875926;28;20213;-79
2021/09/28 03:39:32;;;;;;;0.73;0.73;;;;;;;;;;4872680;28;20201;-79
2021/09/28 03:41:55;;;;;;;0.40;0.40;;;;;;;;;;4876795;28;20254;-80
2021/09/28 03:44:18;;;;;;;0.53;0.53;;;10.40;44.40;;;;;;4876026;28;20716;-79
2021/09/28 03:46:40;;;;;;;0.40;0.40;;;;;;;;;;4876045;28;20198;-80
2021/09/28 03:49:03;;;;;;;0.50;0.50;;;9.80;44.60;;;;;;4875805;28;20229;-78
2021/09/28 03:51:27;;;;;;;0.50;0.50;;;10.40;44.60;;;;;;4871519;28;20259;-78
2021/09/28 03:53:51;;;;;;;0.50;0.50;;;10.30;43.90;;;;;;4876115;28;20181;-80
2021/09/28 03:56:14;;;;;;;1.03;0.60;;;10.40;44.40;;;;;;4875986;28;20232;-79
2021/09/28 03:58:36;;;;;;;0.40;0.40;;;;;;;;;;4876288;28;20217;-78
2021/09/28 04:01:02;;;;;;;0.50;0.50;;;;;;;;;;4874805;28;20201;-80
2021/09/28 04:03:24;;;;;;;0.50;0.50;;;10.30;44.30;;;;;;4871053;28;20252;-78
2021/09/28 04:05:47;;;;;;;0.30;0.30;;;10.10;43.90;;;;;;4876379;28;20181;-79
2021/09/28 04:08:10;;;;;;;0.60;0.60;;;9.60;44.60;;;;;;4876377;28;20255;-79
2021/09/28 04:10:35;;;;;;;0.63;0.63;;;9.80;44.00;;;;;;4876320;28;20246;-81
2021/09/28 04:12:58;;;;;;;0.50;0.50;;;9.70;44.00;;;;;;4875705;28;20280;-83
2021/09/28 04:15:24;;;;;;;0.50;0.50;;;10.00;43.20;;;;;;4876337;28;20213;-83
2021/09/28 04:17:46;;;;;;;0.50;0.50;;;9.40;43.40;;;;;;4872669;28;20276;-81
2021/09/28 04:20:09;;;;;;;0.57;0.57;;;9.60;44.20;;;;;;4875498;28;20243;-82
2021/09/28 04:22:32;;;;;;;0.50;0.50;;;9.60;43.50;;;;;;4875179;28;20193;-83
2021/09/28 04:24:56;;;;;;;0.43;0.43;;;9.50;43.30;;;;;;4875657;28;20196;-82
2021/09/28 04:27:18;;;;;;;0.50;0.50;;;9.50;43.80;;;;;;4876431;28;20181;-82
2021/09/28 04:29:41;;;;;;;0.40;0.40;;;;;;;;;;4876177;28;20235;-82
2021/09/28 04:32:04;;;;;;;0.30;0.30;;;9.20;43.00;;;;;;4875760;28;20577;-81
2021/09/28 04:34:28;;;;;;;0.57;0.57;;;9.20;43.20;;;;;;4876664;28;20208;-81
2021/09/28 04:36:54;;;;;;;0.60;0.60;;;9.00;43.10;;;;;;4876698;28;20239;-83
2021/09/28 04:39:16;;;;;;;0.50;0.50;;;8.90;42.50;;;;;;4875080;28;20251;-80
2021/09/28 04:41:40;;;;;;;0.47;0.47;;;9.10;42.50;;;;;;4876672;28;20186;-82
2021/09/28 04:44:03;;;;;;;0.30;0.30;;;;;;;;;;4876526;28;20197;-82
2021/09/28 04:46:26;;;;;;;0.60;0.60;;;;;;;;;;4874038;28;20201;-82
2021/09/28 04:48:48;;;;;;;0.43;0.43;;;;;;;;;;4876312;28;20220;-82
2021/09/28 04:51:11;;;;;;;0.53;0.53;;;8.90;42.30;;;;;;4875869;28;20186;-80
2021/09/28 04:53:34;;;;;;;0.70;0.70;;;;;;;;;;4875187;28;20189;-80
2021/09/28 04:55:56;;;;;;;0.40;0.40;;;8.70;41.30;;;;;;4872886;28;20259;-79
2021/09/28 04:58:20;;;;;;;0.63;0.63;;;8.90;41.30;;;;;;4875339;28;20217;-80
2021/09/28 05:00:43;;;;;;;1.80;1.70;;;8.80;41.60;;;;;;4871568;28;20185;-80
2021/09/28 05:03:06;;;;;;;0.30;0.30;;;;;;;;;;4865825;28;20221;-80
2021/09/28 05:05:29;;;;;;;0.60;0.60;;;8.50;40.80;;;;;;4873632;28;20712;-80
2021/09/28 05:07:52;;;;;;;0.40;0.40;;;8.70;40.40;;;;;;4874669;28;20217;-80
2021/09/28 05:10:15;;;;;;;0.40;0.40;;;8.70;40.50;;;;;;4875359;28;20185;-81
2021/09/28 05:12:37;;;;;;;0.40;0.40;;;;;;;;;;4875320;28;20258;-78
2021/09/28 05:15:01;;;;;;;0.47;0.47;;;8.80;40.40;;;;;;4874310;28;20197;-81
2021/09/28 05:17:24;;;;;;;0.70;0.70;;;8.50;39.50;;;;;;4865612;28;20194;-81
2021/09/28 05:19:46;;;;;;;0.33;0.33;;;8.80;40.00;;;;;;4869267;28;20209;-82
2021/09/28 05:22:09;;;;;;;0.50;0.50;;;;;;;;;;4867068;28;20718;-82
2021/09/28 05:24:31;;;;;;;0.60;0.60;;;9.20;39.10;;;;;;4864677;28;20229;-81
2021/09/28 05:26:54;;;;;;;0.50;0.50;;;9.30;38.80;;;;;;4868551;28;20201;-82
2021/09/28 05:29:17;;;;;;;0.63;0.63;;;9.40;39.40;;;;;;4870234;28;20216;-77
2021/09/28 05:31:41;;;;;;;0.40;0.40;;;9.30;39.40;;;;;;4874706;28;20208;-77
2021/09/28 05:34:03;;;;;;;0.60;0.60;;;;;;;;;;4873233;28;20189;-76
2021/09/28 05:36:26;;;;;;;0.70;0.70;;;9.90;41.60;;;;;;4873252;28;20193;-79
2021/09/28 05:38:49;;;;;;;0.50;0.50;;;10.00;42.50;;;;;;4870288;28;20644;-82
2021/09/28 05:41:12;;;;;;;0.50;0.50;;;;;;;;;;4855880;28;20182;-77
2021/09/28 05:43:34;;;;;;;0.50;0.50;;;10.30;43.80;;;;;;4868658;28;20282;-83
2021/09/28 05:45:57;;;;;;;0.47;0.47;;;;;;;;;;4874876;28;20569;-83
2021/09/28 05:48:21;;;;;;;0.40;0.40;;;10.50;45.30;;;;;;4874099;28;20678;-78
2021/09/28 05:50:45;;;;;;;0.50;0.50;;;10.60;45.00;;;;;;4875131;28;20189;-82
2021/09/28 05:53:09;;;;;;;0.53;0.53;;;10.90;45.20;;;;;;4874422;28;20205;-83
2021/09/28 05:55:32;;;;;;;0.60;0.60;;;;;;;;;;4873157;28;20181;-83
2021/09/28 05:57:54;;;;;;;0.50;0.50;;;11.00;45.60;;;;;;4874004;28;20374;-79
2021/09/28 06:00:18;;;;;;;0.30;0.30;;;11.00;45.60;;;;;;4874962;28;20247;-79
2021/09/28 06:02:41;;;;;;;0.43;0.43;;;11.00;46.10;;;;;;4871137;28;20233;-82
2021/09/28 06:05:06;;;;;;;0.30;0.30;;;11.20;46.40;;;;;;4874851;28;20201;-80
2021/09/28 06:07:28;;;;;;;0.37;0.37;;;;;;;;;;4874232;28;20227;-82
2021/09/28 06:09:51;;;;;;;0.40;0.40;;;11.30;46.60;;;;;;4874308;28;20251;-78
2021/09/28 06:12:14;;;;;;;0.50;0.50;;;;;;;;;;4874481;28;20252;-82
2021/09/28 06:14:37;;;;;;;0.50;0.50;;;11.50;46.80;;;;;;4874754;28;20189;-81
2021/09/28 06:17:00;;;;;;;0.40;0.40;;;11.60;46.90;;;;;;4877171;28;20220;-80
2021/09/28 06:19:22;;;;;;;0.63;0.63;;;11.90;46.90;;;;;;4875808;28;20181;-81
2021/09/28 06:21:46;;;;;;;0.60;0.60;;;11.90;47.20;;;;;;4858939;28;20190;-82
2021/09/28 06:24:09;;;;;;;0.40;0.40;;;;;;;;;;4874371;28;20227;-74
2021/09/28 06:26:32;;;;;;;0.70;0.70;;;11.90;47.00;;;;;;4877910;28;20244;-74
2021/09/28 06:28:54;;;;;;;0.40;0.40;;;;;;;;;;4878023;28;20679;-74
2021/09/28 06:31:17;;;;;;;0.50;0.50;;;12.10;47.40;;;;;;4877646;28;20255;-74
2021/09/28 06:33:39;;;;;;;0.40;0.40;;;12.20;47.40;;;;;;4877710;28;20740;-77
2021/09/28 06:36:02;;;;;;;0.50;0.50;;;12.50;47.20;;;;;;4874022;28;20255;-82
2021/09/28 06:38:26;;;;;;;0.90;0.90;;;13.10;47.50;;;;;;4877484;28;20197;-80
2021/09/28 06:40:48;;;;;;;0.50;0.50;;;13.20;47.60;;;;;;4876707;28;20874;-78
2021/09/28 06:43:11;;;;;;;0.47;0.47;;;12.90;48.00;;;;;;4877533;28;20552;-74
2021/09/28 06:45:33;;;;;;;1.67;1.57;;;12.40;48.00;;;;;;4876046;28;20724;-77
2021/09/28 06:47:56;;;;;;;1.73;1.63;;;;;;;;;;4858602;28;20201;-75
2021/09/28 06:50:19;;;;;;;0.43;0.43;;;;;;;;;;4869497;28;20640;-78
2021/09/28 06:52:43;;;;;;;0.63;0.63;;;;;;;;;;4875652;28;20189;-76
2021/09/28 06:55:08;;;;;;;0.37;0.37;;;13.60;48.10;;;;;;4877178;28;20663;-86
2021/09/28 06:57:31;;;;;;;0.80;0.80;;;;;;;;;;4875942;28;20209;-76
2021/09/28 06:59:53;;;;;;;1.03;0.83;;;;;;;;;;4871522;28;20552;-75
2021/09/28 07:02:16;;;;;;;0.50;0.50;;;;;;;;;;4874421;28;20750;-76
2021/09/28 07:04:39;;;;;;;0.40;0.40;;;;;;;;;;4882832;28;20354;-76
2021/09/28 07:07:02;;;;;;;0.60;0.60;;;;;;;;;;4884517;28;20262;-75
2021/09/28 07:09:25;;;;;;;1.03;0.90;;;;;;;;;;4878051;28;20213;-77
2021/09/28 07:11:49;;;;;;;0.80;0.80;;;14.50;49.50;;;;;;4887010;28;20201;-78
2021/09/28 07:14:12;;;;;;;0.40;0.40;;;;;;;;;;4892869;28;20235;-85
2021/09/28 07:16:34;;;;;;;1.47;1.30;;;;;;;;;;4876464;28;20189;-80
2021/09/28 07:18:57;;;;;;;1.40;1.10;;;;;;;;;;4876507;28;20194;-79
2021/09/28 07:21:20;;;;;;;0.57;0.57;;;;;;;;;;4879259;28;20189;-84
2021/09/28 07:23:43;;;;;;;1.07;0.90;;;;;;;;;;4883517;28;20193;-80
2021/09/28 07:26:07;;;;;;;0.93;0.80;;;15.60;50.50;;;;;;4890584;28;20733;-82
2021/09/28 07:28:32;;;;;;;1.90;1.27;;;15.80;50.60;;;;;;4857277;28;20198;-83
2021/09/28 07:30:54;;;;;;;1.30;1.00;;;;;;;;;;4861562;28;20248;-83
2021/09/28 07:33:20;;;;;;;0.60;0.60;;;;;;;;;;4875287;28;20645;-75
2021/09/28 07:35:44;;;;;;;2.10;1.47;;;;;;;;;;4880015;28;20188;-75
2021/09/28 07:38:07;;;;;;;1.53;1.13;;;;;;;;;;4872992;28;20181;-81
2021/09/28 07:40:30;;;;;;;3.60;2.57;;;;;;;;;;4882789;28;20321;-83
2021/09/28 07:42:53;;;;;;;1.30;1.03;;;;;;;;;;4877114;28;20521;-83
2021/09/28 07:45:17;;;;;;;0.77;0.63;;;17.20;52.20;;;;;;4874805;28;20723;-81
2021/09/28 07:47:40;;;;;;;1.57;1.03;;;;;;;;;;4875507;28;20537;-84
2021/09/28 07:50:03;;;;;;;0.93;0.77;;;;;;;;;;4879890;28;20270;-80
2021/09/28 07:52:26;;;;;;;1.37;1.07;;;;;;;;;;4875527;28;20215;-76
2021/09/28 07:54:48;;;;;;;0.80;0.60;;;;;;;;;;4877424;28;20752;-78
2021/09/28 07:57:11;;;;;;;1.43;0.97;;;;;;;;;;4855636;28;20230;-81
2021/09/28 07:59:34;;;;;;;1.60;1.20;;;;;;;;;;4868177;28;20201;-78
2021/09/28 08:02:01;;;;;;;0.70;0.53;;;18.40;53.70;;;;;;4865673;28;20573;-78
2021/09/28 08:04:24;;;;;;;1.10;0.80;;;;;;;;;;4879472;28;20266;-81
2021/09/28 08:06:46;;;;;;;1.17;0.90;;;;;;;;;;4885859;28;20235;-77
2021/09/28 08:09:09;;;;;;;1.20;0.80;;;;;;;;;;4873395;28;20315;-77
2021/09/28 08:11:32;;;;;;;2.17;1.30;;;;;;;;;;4882508;28;20189;-82
2021/09/28 08:13:57;;;;;;;1.43;1.00;;;;;;;;;;4865815;28;20275;-79
2021/09/28 08:16:21;;;;;;;1.03;0.60;;;;;;;;;;4871387;28;20201;-81
2021/09/28 08:18:44;;;;;;;1.63;1.10;;;18.90;54.50;;;;;;4875434;28;20666;-79
2021/09/28 08:21:07;;;;;;;1.27;0.83;;;;;;;;;;4882395;28;20205;-81
2021/09/28 08:23:30;;;;;;;1.83;1.33;;;;;;;;;;4874512;28;20240;-82
2021/09/28 08:29:09;;;;;;;2.53;1.57;;;;;;;;;;4873379;28;20192;-78
2021/09/28 08:29:11;;;;;;;1.20;0.87;;;19.50;54.90;;;;;;4869978;28;20196;-77
2021/09/28 08:31:33;;;;;;;1.23;0.90;;;;;;;;;;4872542;28;20606;-79
2021/09/28 08:33:57;;;;;;;2.20;1.50;;;20.00;55.40;;;;;;4872112;28;20228;-76
2021/09/28 08:36:20;;;;;;;0.93;0.70;;;;;;;;;;4874744;28;20220;-81
2021/09/28 08:38:43;;;;;;;1.43;0.97;;;;;;;;;;4875199;28;20206;-81
2021/09/28 08:41:11;;;;;;;2.00;1.07;;;;;;;;;;4881992;28;20642;-80
2021/09/28 08:43:34;;;;;;;2.90;1.47;;;;;;;;;;4889936;28;20202;-81
2021/09/28 08:45:56;;;;;;;5.20;2.03;;;;;;;;;;4872784;28;20190;-80
2021/09/28 08:48:19;;;;;;;2.77;1.03;;;;;;;;;;4878254;28;20632;-81
2021/09/28 08:50:45;;;;;;;3.70;1.23;;;22.40;57.70;;;;;;4881206;28;20214;-81
2021/09/28 08:53:09;;;;;;;2.67;0.93;;;22.70;58.20;;;;;;4875260;28;20305;-81
2021/09/28 08:55:32;;;;;;;4.70;1.77;;;;;;;;;;4878324;28;20212;-79
2021/09/28 08:58:13;;;;;;;4.40;1.53;;;23.50;58.90;;;;;;4877228;28;20686;-76
2021/09/28 09:00:36;;;;;;;26.27;8.23;;;;;;;;;;4869428;28;20308;-82
2021/09/28 09:02:58;;;;;;;3.70;1.23;;;;;;;;;;4876226;28;20227;-84
2021/09/28 09:05:22;;;;;;;2.47;1.00;;;24.90;60.00;;;;;;4874011;28;20252;-80
2021/09/28 09:08:01;;;;;;;4.30;1.50;;;25.30;45.50;;;;;;4873624;28;20188;-81
2021/09/28 09:10:31;;;;;;;5.30;1.80;;;25.70;45.80;;;;;;4882579;28;20876;-79
2021/09/28 09:12:54;;;;;;;3.57;1.30;;;;;;;;;;4868223;28;20672;-76
2021/09/28 09:15:19;;;;;;;4.57;1.47;;;26.50;46.50;;;;;;4881997;28;20700;-78
2021/09/28 09:17:42;;;;;;;3.40;1.10;;;;;;;;;;4875770;28;20200;-77
2021/09/28 09:20:28;;;;;;;3.23;1.17;;;27.00;46.80;;;;;;4880028;28;20202;-82
2021/09/28 09:22:52;;;;;;;4.57;1.40;;;27.10;46.80;;;;;;4886256;28;20176;-78
2021/09/28 09:25:19;;;;;;;3.90;1.30;;;27.10;46.90;;;;;;4859660;28;20621;-80
2021/09/28 09:27:42;;;;;;;3.63;1.07;;;;;;;;;;4873121;28;20190;-77
2021/09/28 09:30:08;;;;;;;3.70;1.23;;;27.20;47.10;;;;;;4882622;28;20209;-82
2021/09/28 09:32:45;;;;;;;5.60;1.63;;;27.10;47.10;;;;;;4872759;28;20729;-78
2021/09/28 09:35:08;;;;;;;2.90;1.00;;;27.20;47.00;;;;;;4874476;28;20820;-82
2021/09/28 09:37:37;;;;;;;6.77;2.03;;;27.70;47.30;;;;;;4874001;28;20185;-81
2021/09/28 09:40:01;;;;;;;3.70;1.17;;;28.50;47.60;;;;;;4872647;28;21346;-78
2021/09/28 09:42:27;;;;;;;7.97;2.00;;;;;;;;;;4878157;28;20549;-80
2021/09/28 09:44:52;;;;;;;5.53;1.40;;;29.20;47.90;;;;;;4876972;28;20409;-77
2021/09/28 09:47:28;;;;;;;4.13;1.00;;;29.90;48.20;;;;;;4874709;28;20215;-76
2021/09/28 09:49:51;;;;;;;9.97;2.03;;;;;;;;;;4877336;28;20262;-77
2021/09/28 09:52:14;;;;;;;7.30;1.47;;;;;;;;;;4883559;28;20184;-78
2021/09/28 09:54:38;;;;;;;10.67;2.10;;;33.30;49.80;;;;;;4885167;28;20230;-77
2021/09/28 09:57:05;;;;;;;5.17;1.03;;;34.30;50.10;;;;;;4885486;28;20221;-78
2021/09/28 09:59:28;;;;;;;12.40;2.27;;;;;;;;;;4877687;28;20221;-77
2021/09/28 10:01:52;;;;;;;12.37;2.00;;;36.00;51.00;;;;;;4880109;28;20239;-76
2021/09/28 10:04:16;;;;;;;19.13;3.00;;;36.10;51.10;;;;;;4875340;28;20375;-75
2021/09/28 10:06:39;;;;;;;17.53;2.67;;;;;;;;;;4873891;28;20665;-76
2021/09/28 10:09:02;;;;;;;7.63;1.27;;;;;;;;;;4877998;28;20228;-75
2021/09/28 10:11:27;;;;;;;17.77;2.60;;;36.60;51.20;;;;;;4879308;28;20613;-76
2021/09/28 10:13:53;;;;;;;12.80;1.88;;;37.30;51.50;;;;;;4872653;28;20182;-78
2021/09/28 10:16:39;;;;;;;14.45;2.03;;;37.40;51.60;;;;;;4873132;28;20182;-75
2021/09/28 10:19:02;;;;;;;9.98;1.42;;;;;;;;;;4876530;28;20666;-75
2021/09/28 10:21:41;;;;;;;17.93;2.50;;;35.10;50.80;;;;;;4873632;28;20181;-76
2021/09/28 10:24:31;;;;;;;7.43;1.15;;;34.40;50.50;;;;;;4874123;28;20212;-77
2021/09/28 10:27:31;;;;;;;10.65;1.65;;;34.50;50.60;;;;;;4869962;28;20245;-75
2021/09/28 10:29:56;;;;;;;11.70;1.77;;;34.50;50.60;;;;;;4881034;28;20195;-74
2021/09/28 10:32:47;;;;;;;9.93;1.47;;;34.30;50.50;;;;;;4882351;28;20229;-76
2021/09/28 10:35:12;;;;;;;14.63;2.23;;;;;;;;;;4868337;28;20195;-78
2021/09/28 10:37:49;;;;;;;13.70;2.13;;;34.50;50.60;;;;;;4873669;28;20211;-76
2021/09/28 10:40:49;;;;;;;9.67;1.57;;;34.20;50.50;;;;;;4863211;28;20183;-75
2021/09/28 10:43:27;;;;;;;10.27;1.60;;;33.80;50.40;;;;;;4884317;28;20190;-76
2021/09/28 10:45:51;;;;;;;13.93;2.20;;;33.30;50.20;;;;;;4893526;28;20178;-76
2021/09/28 10:48:38;;;;;;;9.57;1.60;;;33.10;50.20;;;;;;4880355;28;20220;-77
2021/09/28 10:51:13;;;;;;;10.00;1.67;;;32.70;50.00;;;;;;4873444;28;20809;-75
2021/09/28 10:53:38;;;;;;;15.47;2.40;;;32.70;50.00;;;;;;4877418;28;20657;-76
2021/09/28 10:56:04;;;;;;;10.23;1.53;;;32.70;50.00;;;;;;4867691;28;20214;-76
2021/09/28 10:58:27;;;;;;;13.07;2.10;;;32.70;50.00;;;;;;4870766;28;20244;-76
2021/09/28 11:01:12;;;;;;;30.70;4.77;;;32.50;49.90;;;;;;4869195;28;20724;-75
2021/09/28 11:03:58;;;;;;;16.07;2.60;;;32.20;49.80;;;;;;4871537;28;20227;-79
2021/09/28 11:06:46;;;;;;;8.80;1.53;;;32.50;49.90;;;;;;4872983;28;20189;-76
2021/09/28 11:09:09;;;;;;;13.40;2.13;;;;;;;;;;4875852;28;20183;-74
2021/09/28 11:11:31;;;;;;;12.87;2.03;;;;;;;;;;4877039;28;20226;-75
2021/09/28 11:14:01;;;;;;;14.60;2.37;;;32.50;49.90;;;;;;4883740;28;20192;-77
2021/09/28 11:16:25;;;;;;;14.07;2.27;;;32.50;49.90;;;;;;4877064;28;20181;-79
2021/09/28 11:18:54;;;;;;;10.30;1.67;;;32.80;50.10;;;;;;4882336;28;20239;-78
2021/09/28 11:21:17;;;;;;;17.83;2.83;;;;;;;;;;4877929;28;20191;-76
2021/09/28 11:23:40;;;;;;;7.93;1.30;;;32.60;50.00;;;;;;4866823;28;20199;-78
2021/09/28 11:26:04;;;;;;;10.83;1.83;;;;;;;;;;4870309;28;20193;-76
2021/09/28 11:28:26;;;;;;;12.63;2.00;;;;;;;;;;4875649;28;20237;-76
2021/09/28 11:30:53;;;;;;;9.73;1.63;;;31.30;49.40;;;;;;4871651;28;20230;-77
2021/09/28 11:33:18;;;;;;;9.17;1.67;;;30.60;49.20;;;;;;4874775;28;20219;-77
2021/09/28 11:35:56;;;;;;;12.63;2.17;;;29.90;48.90;;;;;;4879583;28;20668;-75
2021/09/28 11:38:27;;;;;;;10.17;1.77;;;29.50;48.70;;;;;;4872660;28;20561;-76
2021/09/28 11:40:58;;;;;;;9.90;1.63;;;29.20;48.60;;;;;;4874657;28;20262;-78
2021/09/28 11:43:24;;;;;;;8.10;1.43;;;29.20;48.60;;;;;;4886159;28;20262;-78
2021/09/28 11:45:47;;;;;;;11.90;2.17;;;;;;;;;;4875361;28;20689;-76
2021/09/28 11:48:10;;;;;;;6.70;1.30;;;;;;;;;;4878709;28;20184;-79
2021/09/28 11:50:33;;;;;;;12.77;2.27;;;29.10;48.50;;;;;;4878384;28;20592;-75
2021/09/28 11:52:56;;;;;;;8.47;1.60;;;;;;;;;;4875139;28;20228;-75
2021/09/28 11:55:22;;;;;;;8.53;1.57;;;28.60;48.30;;;;;;4884791;28;20208;-74
2021/09/28 11:57:45;;;;;;;10.30;1.80;;;;;;;;;;4878007;28;20212;-75
2021/09/28 12:00:09;;;;;;;9.37;1.70;;;28.30;48.20;;;;;;4878784;28;20239;-74
2021/09/28 12:02:35;;;;;;;13.77;2.57;;;;;;;;;;4879422;28;20266;-74
2021/09/28 12:08:03;;;;;;;9.30;1.57;;;27.90;48.10;;;;;;4874461;28;20203;-75
2021/09/28 12:10:26;;;;;;;12.70;2.07;;;;;;;;;;4880872;28;20197;-76
2021/09/28 12:12:50;;;;;;;10.87;1.73;;;;;;;;;;4885025;28;20211;-74
2021/09/28 12:15:13;;;;;;;7.50;1.30;;;;;;;;;;4880473;28;20189;-74
2021/09/28 12:17:38;;;;;;;14.70;2.33;;;30.30;49.00;;;;;;4876920;28;20204;-80
2021/09/28 12:20:05;;;;;;;14.30;2.30;;;30.70;49.20;;;;;;4874926;28;20885;-81
2021/09/28 12:22:30;;;;;;;14.17;2.10;;;31.30;49.40;;;;;;4881501;28;20244;-78
2021/09/28 12:24:54;;;;;;;11.57;1.77;;;32.20;49.70;;;;;;4878179;28;20653;-78
2021/09/28 12:27:19;;;;;;;8.90;1.50;;;32.80;49.90;;;;;;4875213;28;20658;-77
2021/09/28 12:29:46;;;;;;;8.87;1.40;;;33.40;50.20;;;;;;4874907;28;20232;-78
2021/09/28 12:32:09;;;;;;;10.13;1.60;;;;;;;;;;4885388;28;20209;-76
2021/09/28 12:34:48;;;;;;;12.90;2.03;;;33.80;50.30;;;;;;4871955;28;20254;-76
2021/09/28 12:37:11;;;;;;;13.03;1.97;;;;;;;;;;4872627;28;20201;-79
2021/09/28 12:39:34;;;;;;;11.10;1.77;;;;;;;;;;4880675;28;20249;-79
2021/09/28 12:42:04;;;;;;;10.47;1.67;;;34.70;50.70;;;;;;4880481;28;20199;-76
2021/09/28 12:44:27;;;;;;;14.47;2.10;;;;;;;;;;4884475;28;20194;-77
2021/09/28 12:46:50;;;;;;;13.10;2.07;;;;;;;;;;4875047;28;20203;-76
2021/09/28 12:49:27;;;;;;;9.07;1.40;;;33.40;50.20;;;;;;4874197;28;20221;-80
2021/09/28 12:51:50;;;;;;;13.83;2.27;;;;;;;;;;4878432;28;20230;-79
2021/09/28 12:54:14;;;;;;;22.07;3.43;;;;;;;;;;4877707;28;20218;-77
2021/09/28 12:56:36;;;;;;;21.63;3.53;;;;;;;;;;4876830;28;20260;-78
2021/09/28 12:59:00;;;;;;;11.80;1.93;;;31.50;49.50;;;;;;4874245;28;20535;-78
2021/09/28 13:01:23;;;;;;;8.07;1.37;;;;;;;;;;4872316;28;20243;-77
2021/09/28 13:03:46;;;;;;;12.33;2.07;;;;;;;;;;4873590;28;20226;-78
2021/09/28 13:06:11;;;;;;;12.70;2.07;;;31.90;49.70;;;;;;4877525;28;20228;-79
2021/09/28 13:08:36;;;;;;;10.80;1.80;;;;;;;;;;4875986;28;20252;-76
2021/09/28 13:11:01;;;;;;;9.33;1.53;;;30.60;49.30;;;;;;4874972;28;20191;-76
2021/09/28 13:13:25;;;;;;;9.73;1.63;;;29.70;49.00;;;;;;4887595;28;20216;-76
2021/09/28 13:15:50;;;;;;;10.83;1.87;;;29.00;48.70;;;;;;4886345;28;20189;-77
2021/09/28 13:18:13;;;;;;;10.60;1.80;;;;;;;;;;4875114;28;20235;-76